createdAt,value
2022-07-29T00:00:57.736Z,98.28
2022-07-29T00:01:58.085Z,98.07
2022-07-29T00:02:58.526Z,98.07
2022-07-29T00:03:58.876Z,98.07
2022-07-29T00:04:59.198Z,97.97
2022-07-29T00:05:59.548Z,97.97
2022-07-29T00:06:59.914Z,97.87
2022-07-29T00:08:00.309Z,97.87
2022-07-29T00:09:00.676Z,98.03
2022-07-29T00:10:00.975Z,97.92
2022-07-29T00:11:01.351Z,98.03
2022-07-29T00:12:01.711Z,97.52
2022-07-29T00:13:02.086Z,97.52
2022-07-29T00:14:02.440Z,97.31
2022-07-29T00:15:02.813Z,97.31
2022-07-29T00:16:04.783Z,97.11
2022-07-29T00:17:03.583Z,97.00
2022-07-29T00:18:03.916Z,96.91
2022-07-29T00:19:04.284Z,96.80
2022-07-29T00:20:05.196Z,96.91
2022-07-29T00:21:05.037Z,96.70
2022-07-29T00:22:05.386Z,96.70
2022-07-29T00:23:05.791Z,96.91
2022-07-29T00:24:06.106Z,97.00
2022-07-29T00:25:06.497Z,97.11
2022-07-29T00:26:06.840Z,97.11
2022-07-29T00:27:07.215Z,97.11
2022-07-29T00:28:07.617Z,97.15
2022-07-29T00:30:08.332Z,97.05
2022-07-29T00:31:08.689Z,96.84
2022-07-29T00:32:09.042Z,96.74
2022-07-29T00:33:09.421Z,96.74
2022-07-29T00:34:09.751Z,96.84
2022-07-29T00:35:10.115Z,96.84
2022-07-29T00:36:10.461Z,96.95
2022-07-29T00:37:10.846Z,97.05
2022-07-29T00:38:11.210Z,97.15
2022-07-29T00:39:11.580Z,97.30
2022-07-29T00:40:11.937Z,97.40
2022-07-29T00:41:12.312Z,97.71
2022-07-29T00:42:12.667Z,97.81
2022-07-29T00:43:13.107Z,97.91
2022-07-29T00:44:13.822Z,97.91
2022-07-29T00:45:13.810Z,98.12
2022-07-29T00:46:14.148Z,98.12
2022-07-29T00:47:14.510Z,98.12
2022-07-29T00:48:14.851Z,98.12
2022-07-29T00:49:15.244Z,98.12
2022-07-29T00:50:15.589Z,98.12
2022-07-29T00:51:15.920Z,98.33
2022-07-29T00:52:17.153Z,98.22
2022-07-29T00:53:16.658Z,98.02
2022-07-29T00:54:17.511Z,97.91
2022-07-29T00:55:17.370Z,97.91
2022-07-29T00:56:17.774Z,97.81
2022-07-29T00:57:18.087Z,97.91
2022-07-29T00:58:18.466Z,98.02
2022-07-29T00:59:18.798Z,98.22
2022-07-29T01:00:19.155Z,98.43
2022-07-29T01:01:19.583Z,98.43
2022-07-29T01:02:20.009Z,98.43
2022-07-29T01:03:20.278Z,98.53
2022-07-29T01:04:20.599Z,98.63
2022-07-29T01:05:20.966Z,98.74
2022-07-29T01:06:21.340Z,98.83
2022-07-29T01:07:21.693Z,98.94
2022-07-29T01:08:22.120Z,99.15
2022-07-29T01:09:35.040Z,99.25
2022-07-29T01:10:22.766Z,99.35
2022-07-29T01:11:23.131Z,99.35
2022-07-29T01:12:23.497Z,99.25
2022-07-29T01:13:23.883Z,99.15
2022-07-29T01:14:24.238Z,99.15
2022-07-29T01:15:24.608Z,99.25
2022-07-29T01:16:24.997Z,99.25
2022-07-29T01:17:25.341Z,99.25
2022-07-29T01:18:25.714Z,99.15
2022-07-29T01:19:26.048Z,99.15
2022-07-29T01:20:31.751Z,99.15
2022-07-29T01:21:26.799Z,99.25
2022-07-29T01:22:27.122Z,99.10
2022-07-29T01:23:27.639Z,98.99
2022-07-29T01:24:27.859Z,98.99
2022-07-29T01:25:28.366Z,98.99
2022-07-29T01:26:28.602Z,98.90
2022-07-29T01:27:28.943Z,98.79
2022-07-29T01:28:29.292Z,98.58
2022-07-29T01:29:29.862Z,98.58
2022-07-29T01:30:29.991Z,98.49
2022-07-29T01:31:30.418Z,98.38
2022-07-29T01:32:30.794Z,98.28
2022-07-29T01:33:31.124Z,98.28
2022-07-29T01:34:31.412Z,98.18
2022-07-29T01:35:31.779Z,98.07
2022-07-29T01:36:32.147Z,97.97
2022-07-29T01:37:32.506Z,97.87
2022-07-29T01:39:47.429Z,97.97
2022-07-29T01:40:48.737Z,98.12
2022-07-29T01:41:49.124Z,98.33
2022-07-29T01:42:49.456Z,98.43
2022-07-29T01:43:49.813Z,98.63
2022-07-29T01:44:50.179Z,98.74
2022-07-29T01:45:50.521Z,98.83
2022-07-29T01:46:50.965Z,99.04
2022-07-29T01:47:51.221Z,98.94
2022-07-29T01:48:51.634Z,99.04
2022-07-29T01:49:51.945Z,99.15
2022-07-29T01:50:52.287Z,99.04
2022-07-29T01:51:52.643Z,98.94
2022-07-29T01:52:52.990Z,98.94
2022-07-29T01:53:53.384Z,98.94
2022-07-29T01:54:53.765Z,98.94
2022-07-29T01:55:54.117Z,98.83
2022-07-29T01:56:54.473Z,98.83
2022-07-29T01:57:54.859Z,98.74
2022-07-29T01:58:55.173Z,98.58
2022-07-29T01:59:55.547Z,98.58
2022-07-29T02:00:55.903Z,98.49
2022-07-29T02:01:56.281Z,98.38
2022-07-29T02:02:56.609Z,98.38
2022-07-29T02:03:56.964Z,98.03
2022-07-29T02:04:57.391Z,97.41
2022-07-29T02:05:57.693Z,96.45
2022-07-29T02:06:58.033Z,95.07
2022-07-29T02:07:58.415Z,94.52
2022-07-29T02:08:58.779Z,93.91
2022-07-29T02:09:59.182Z,93.19
2022-07-29T02:10:59.505Z,92.13
2022-07-29T02:11:59.882Z,91.82
2022-07-29T02:13:00.230Z,91.57
2022-07-29T02:14:00.589Z,90.96
2022-07-29T02:15:00.941Z,90.66
2022-07-29T02:16:01.397Z,90.31
2022-07-29T02:17:01.661Z,90.00
2022-07-29T02:18:02.028Z,89.08
2022-07-29T02:19:02.373Z,88.73
2022-07-29T02:20:02.745Z,88.32
2022-07-29T02:21:03.144Z,88.22
2022-07-29T02:22:03.457Z,88.02
2022-07-29T02:23:03.805Z,87.88
2022-07-29T02:24:04.153Z,87.16
2022-07-29T02:25:04.521Z,86.96
2022-07-29T02:26:04.875Z,87.06
2022-07-29T02:27:05.242Z,86.86
2022-07-29T02:28:05.622Z,86.71
2022-07-29T02:29:05.951Z,86.61
2022-07-29T02:30:06.317Z,86.51
2022-07-29T02:31:06.735Z,86.00
2022-07-29T02:32:07.027Z,85.80
2022-07-29T02:33:07.400Z,85.60
2022-07-29T02:34:07.763Z,85.45
2022-07-29T02:35:08.172Z,85.35
2022-07-29T02:36:08.481Z,84.94
2022-07-29T02:37:08.868Z,85.14
2022-07-29T02:38:09.248Z,85.25
2022-07-29T02:39:10.818Z,85.05
2022-07-29T02:40:09.994Z,84.94
2022-07-29T02:41:10.384Z,84.94
2022-07-29T02:42:10.732Z,84.84
2022-07-29T02:43:11.095Z,84.84
2022-07-29T02:44:11.463Z,85.05
2022-07-29T02:45:11.699Z,85.14
2022-07-29T02:46:28.028Z,84.94
2022-07-29T02:47:12.144Z,85.05
2022-07-29T02:48:12.303Z,84.64
2022-07-29T02:49:12.777Z,84.43
2022-07-29T02:50:13.133Z,84.64
2022-07-29T02:51:13.361Z,84.84
2022-07-29T02:52:13.660Z,84.94
2022-07-29T02:53:13.811Z,85.05
2022-07-29T02:54:14.266Z,85.05
2022-07-29T02:55:14.433Z,84.64
2022-07-29T02:56:14.537Z,84.53
2022-07-29T02:57:14.718Z,84.74
2022-07-29T02:58:14.883Z,84.74
2022-07-29T02:59:15.064Z,84.94
2022-07-29T03:00:15.243Z,84.84
2022-07-29T03:01:20.985Z,84.74
2022-07-29T03:02:15.851Z,84.84
2022-07-29T03:03:15.952Z,84.94
2022-07-29T03:04:16.444Z,84.94
2022-07-29T03:05:16.485Z,85.05
2022-07-29T03:06:28.188Z,85.14
2022-07-29T03:07:16.870Z,85.14
2022-07-29T03:08:17.075Z,85.25
2022-07-29T03:09:17.358Z,85.35
2022-07-29T03:10:17.565Z,85.45
2022-07-29T03:11:17.812Z,85.25
2022-07-29T03:12:17.990Z,85.25
2022-07-29T03:13:18.172Z,85.05
2022-07-29T03:14:18.846Z,85.14
2022-07-29T03:15:18.664Z,85.25
2022-07-29T03:16:18.987Z,85.14
2022-07-29T03:17:19.149Z,85.25
2022-07-29T03:18:19.301Z,85.25
2022-07-29T03:19:19.586Z,85.25
2022-07-29T03:20:19.799Z,85.35
2022-07-29T03:21:20.057Z,85.25
2022-07-29T03:22:20.243Z,85.25
2022-07-29T03:23:20.532Z,85.25
2022-07-29T03:24:20.696Z,85.25
2022-07-29T03:25:20.890Z,85.14
2022-07-29T03:26:21.197Z,85.25
2022-07-29T03:27:21.470Z,85.25
2022-07-29T03:28:21.648Z,85.35
2022-07-29T03:29:21.839Z,85.55
2022-07-29T03:30:22.635Z,85.66
2022-07-29T03:31:22.330Z,85.75
2022-07-29T03:32:25.109Z,85.86
2022-07-29T03:33:22.661Z,86.06
2022-07-29T03:34:23.566Z,86.21
2022-07-29T03:35:23.016Z,86.41
2022-07-29T03:36:23.176Z,86.51
2022-07-29T03:37:23.364Z,86.51
2022-07-29T03:38:23.507Z,86.51
2022-07-29T03:39:23.688Z,86.51
2022-07-29T03:40:23.847Z,86.47
2022-07-29T03:41:24.038Z,86.27
2022-07-29T03:42:24.204Z,86.27
2022-07-29T03:43:24.367Z,86.27
2022-07-29T03:44:24.537Z,86.51
2022-07-29T03:45:24.703Z,86.47
2022-07-29T03:46:24.959Z,86.37
2022-07-29T03:47:43.504Z,86.37
2022-07-29T03:48:25.263Z,86.37
2022-07-29T03:49:25.462Z,86.37
2022-07-29T03:50:25.623Z,86.37
2022-07-29T03:51:33.695Z,86.47
2022-07-29T03:52:25.920Z,86.47
2022-07-29T03:53:26.107Z,86.37
2022-07-29T03:54:26.256Z,86.27
2022-07-29T03:55:26.439Z,86.16
2022-07-29T03:56:26.646Z,86.16
2022-07-29T03:57:26.788Z,86.27
2022-07-29T03:58:27.004Z,86.37
2022-07-29T03:59:27.200Z,86.27
2022-07-29T04:00:27.353Z,86.47
2022-07-29T04:01:27.622Z,86.57
2022-07-29T04:02:30.718Z,86.57
2022-07-29T04:03:27.998Z,86.57
2022-07-29T04:04:28.178Z,86.57
2022-07-29T04:05:28.362Z,86.57
2022-07-29T04:06:28.526Z,86.57
2022-07-29T04:07:28.724Z,86.57
2022-07-29T04:08:28.875Z,86.57
2022-07-29T04:09:29.054Z,86.57
2022-07-29T04:10:31.980Z,86.57
2022-07-29T04:11:29.437Z,86.68
2022-07-29T04:12:29.623Z,86.57
2022-07-29T04:13:29.828Z,86.57
2022-07-29T04:14:30.017Z,86.57
2022-07-29T04:15:31.435Z,86.47
2022-07-29T04:16:30.379Z,86.57
2022-07-29T04:17:30.553Z,86.57
2022-07-29T04:18:30.704Z,86.37
2022-07-29T04:19:30.882Z,86.37
2022-07-29T04:20:31.088Z,86.13
2022-07-29T04:21:31.224Z,86.22
2022-07-29T04:22:31.414Z,86.22
2022-07-29T04:23:31.612Z,86.13
2022-07-29T04:24:31.797Z,86.02
2022-07-29T04:25:32.027Z,86.02
2022-07-29T04:26:32.218Z,86.02
2022-07-29T04:27:32.361Z,85.82
2022-07-29T04:28:32.572Z,85.82
2022-07-29T04:29:32.755Z,85.41
2022-07-29T04:30:32.965Z,85.27
2022-07-29T04:31:33.223Z,85.17
2022-07-29T04:32:33.346Z,84.97
2022-07-29T04:33:33.527Z,85.06
2022-07-29T04:34:33.706Z,84.76
2022-07-29T04:35:38.413Z,84.97
2022-07-29T04:36:34.058Z,84.56
2022-07-29T04:37:34.275Z,84.31
2022-07-29T04:38:34.412Z,84.31
2022-07-29T04:39:34.607Z,84.11
2022-07-29T04:40:34.841Z,84.21
2022-07-29T04:41:34.998Z,84.11
2022-07-29T04:42:35.215Z,84.01
2022-07-29T04:43:36.681Z,83.91
2022-07-29T04:44:37.175Z,84.01
2022-07-29T04:45:35.793Z,83.91
2022-07-29T04:46:36.001Z,83.91
2022-07-29T04:47:36.116Z,84.01
2022-07-29T04:48:36.341Z,83.76
2022-07-29T04:49:36.517Z,83.67
2022-07-29T04:50:36.714Z,83.87
2022-07-29T04:51:36.896Z,83.67
2022-07-29T04:52:37.127Z,83.87
2022-07-29T04:53:37.303Z,83.46
2022-07-29T04:54:37.500Z,83.56
2022-07-29T04:55:38.839Z,83.56
2022-07-29T04:56:37.837Z,83.46
2022-07-29T04:57:38.043Z,83.56
2022-07-29T04:58:38.187Z,83.76
2022-07-29T04:59:38.392Z,83.56
2022-07-29T05:00:38.602Z,83.56
2022-07-29T05:01:38.825Z,83.76
2022-07-29T05:02:39.058Z,83.46
2022-07-29T05:03:39.141Z,83.46
2022-07-29T05:04:39.402Z,83.36
2022-07-29T05:05:39.518Z,83.56
2022-07-29T05:06:39.676Z,83.22
2022-07-29T05:07:39.838Z,83.12
2022-07-29T05:08:40.053Z,83.12
2022-07-29T05:09:40.237Z,83.01
2022-07-29T05:10:40.478Z,83.22
2022-07-29T05:11:40.618Z,83.22
2022-07-29T05:12:40.743Z,83.22
2022-07-29T05:13:45.203Z,83.12
2022-07-29T05:14:41.137Z,83.22
2022-07-29T05:15:41.371Z,83.01
2022-07-29T05:16:41.508Z,82.78
2022-07-29T05:17:41.696Z,81.41
2022-07-29T05:18:41.896Z,80.66
2022-07-29T05:19:42.086Z,80.91
2022-07-29T05:20:42.295Z,81.07
2022-07-29T05:21:42.483Z,81.18
2022-07-29T05:22:42.645Z,80.87
2022-07-29T05:23:42.851Z,80.97
2022-07-29T05:24:43.016Z,81.07
2022-07-29T05:25:44.823Z,81.21
2022-07-29T05:26:43.419Z,81.01
2022-07-29T05:27:43.740Z,81.41
2022-07-29T05:28:43.795Z,81.18
2022-07-29T05:29:45.731Z,81.27
2022-07-29T05:30:44.264Z,80.93
2022-07-29T05:31:44.391Z,80.93
2022-07-29T05:32:44.581Z,80.12
2022-07-29T05:33:44.770Z,79.72
2022-07-29T05:34:51.409Z,79.41
2022-07-29T05:35:45.210Z,79.41
2022-07-29T05:36:45.323Z,79.72
2022-07-29T05:37:45.514Z,79.82
2022-07-29T05:38:45.709Z,79.92
2022-07-29T05:39:49.126Z,79.82
2022-07-29T05:40:46.097Z,80.12
2022-07-29T05:41:51.542Z,79.61
2022-07-29T05:42:46.495Z,79.47
2022-07-29T05:43:46.614Z,79.27
2022-07-29T05:44:46.800Z,79.82
2022-07-29T05:45:49.251Z,79.88
2022-07-29T05:46:47.235Z,80.22
2022-07-29T05:47:47.363Z,80.53
2022-07-29T05:48:47.600Z,80.73
2022-07-29T05:49:47.780Z,80.22
2022-07-29T05:50:48.044Z,80.43
2022-07-29T05:51:48.151Z,80.32
2022-07-29T05:52:48.361Z,80.63
2022-07-29T05:53:48.575Z,80.49
2022-07-29T05:54:48.706Z,80.19
2022-07-29T05:55:48.905Z,80.29
2022-07-29T05:56:49.106Z,80.29
2022-07-29T05:57:49.297Z,79.64
2022-07-29T05:58:49.494Z,79.24
2022-07-29T05:59:49.678Z,79.64
2022-07-29T06:00:49.906Z,79.74
2022-07-29T06:01:50.143Z,79.44
2022-07-29T06:02:50.267Z,79.40
2022-07-29T06:03:50.484Z,79.30
2022-07-29T06:04:50.735Z,79.20
2022-07-29T06:05:50.871Z,78.66
2022-07-29T06:06:51.017Z,78.66
2022-07-29T06:07:51.642Z,78.89
2022-07-29T06:08:51.421Z,79.00
2022-07-29T06:09:51.651Z,79.10
2022-07-29T06:10:51.836Z,79.00
2022-07-29T06:11:52.008Z,78.25
2022-07-29T06:12:52.191Z,78.66
2022-07-29T06:13:52.389Z,78.35
2022-07-29T06:14:54.288Z,78.45
2022-07-29T06:15:52.803Z,78.75
2022-07-29T06:16:52.999Z,78.15
2022-07-29T06:17:59.111Z,78.45
2022-07-29T06:18:53.326Z,78.15
2022-07-29T06:19:53.536Z,78.62
2022-07-29T06:20:53.712Z,78.25
2022-07-29T06:21:53.900Z,77.91
2022-07-29T06:22:54.053Z,78.01
2022-07-29T06:23:54.241Z,77.57
2022-07-29T06:24:54.459Z,77.81
2022-07-29T06:25:54.639Z,77.67
2022-07-29T06:26:54.819Z,77.40
2022-07-29T06:27:55.002Z,78.11
2022-07-29T06:28:55.192Z,77.87
2022-07-29T06:29:55.382Z,77.03
2022-07-29T06:30:55.662Z,77.03
2022-07-29T06:31:55.765Z,76.76
2022-07-29T06:32:55.936Z,77.57
2022-07-29T06:33:56.145Z,76.52
2022-07-29T06:35:07.004Z,77.03
2022-07-29T06:35:56.509Z,76.08
2022-07-29T06:36:56.660Z,75.34
2022-07-29T06:37:58.052Z,74.22
2022-07-29T06:38:57.028Z,74.49
2022-07-29T06:39:59.580Z,74.63
2022-07-29T06:40:57.427Z,74.33
2022-07-29T06:41:57.621Z,74.63
2022-07-29T06:42:57.807Z,74.33
2022-07-29T06:43:58.003Z,74.46
2022-07-29T06:44:58.202Z,74.53
2022-07-29T06:45:58.530Z,74.43
2022-07-29T06:46:58.574Z,74.29
2022-07-29T06:47:58.761Z,73.52
2022-07-29T06:48:58.985Z,74.02
2022-07-29T06:49:59.152Z,73.93
2022-07-29T06:50:59.366Z,73.72
2022-07-29T06:51:59.553Z,73.72
2022-07-29T06:52:59.724Z,73.38
2022-07-29T06:54:03.422Z,72.78
2022-07-29T06:55:00.088Z,72.75
2022-07-29T06:56:00.317Z,72.44
2022-07-29T06:57:00.551Z,72.95
2022-07-29T06:58:00.676Z,73.15
2022-07-29T06:59:01.503Z,73.55
2022-07-29T07:00:01.057Z,73.05
2022-07-29T07:01:01.308Z,72.85
2022-07-29T07:02:01.473Z,72.64
2022-07-29T07:03:01.630Z,73.38
2022-07-29T07:04:01.813Z,73.89
2022-07-29T07:05:01.952Z,73.38
2022-07-29T07:06:02.163Z,73.93
2022-07-29T07:07:02.413Z,73.79
2022-07-29T07:08:02.558Z,73.49
2022-07-29T07:09:02.751Z,73.65
2022-07-29T07:10:02.961Z,73.05
2022-07-29T07:11:03.156Z,72.85
2022-07-29T07:12:03.316Z,73.15
2022-07-29T07:13:03.468Z,73.85
2022-07-29T07:14:04.375Z,72.85
2022-07-29T07:15:03.837Z,73.35
2022-07-29T07:16:04.074Z,72.81
2022-07-29T07:17:04.285Z,72.17
2022-07-29T07:18:04.441Z,71.94
2022-07-29T07:19:04.636Z,71.73
2022-07-29T07:20:04.831Z,72.17
2022-07-29T07:21:05.108Z,71.97
2022-07-29T07:22:05.219Z,71.97
2022-07-29T07:23:05.422Z,71.77
2022-07-29T07:24:05.645Z,71.67
2022-07-29T07:25:05.814Z,71.37
2022-07-29T07:26:05.995Z,71.47
2022-07-29T07:27:06.188Z,71.64
2022-07-29T07:28:06.462Z,70.73
2022-07-29T07:29:06.675Z,70.73
2022-07-29T07:30:06.750Z,70.29
2022-07-29T07:31:06.933Z,70.53
2022-07-29T07:32:07.242Z,70.93
2022-07-29T07:33:07.330Z,71.10
2022-07-29T07:34:07.467Z,70.70
2022-07-29T07:35:07.656Z,70.83
2022-07-29T07:36:07.868Z,70.50
2022-07-29T07:37:08.031Z,70.83
2022-07-29T07:38:08.208Z,71.44
2022-07-29T07:39:14.427Z,70.29
2022-07-29T07:40:08.588Z,70.16
2022-07-29T07:41:08.836Z,69.25
2022-07-29T07:42:08.943Z,69.02
2022-07-29T07:43:09.127Z,69.25
2022-07-29T07:44:14.167Z,70.59
2022-07-29T07:45:14.102Z,71.30
2022-07-29T07:46:09.770Z,71.50
2022-07-29T07:47:12.315Z,71.53
2022-07-29T07:48:10.095Z,71.57
2022-07-29T07:49:10.435Z,71.64
2022-07-29T07:50:13.816Z,71.73
2022-07-29T07:51:10.688Z,71.10
2022-07-29T07:52:10.849Z,71.10
2022-07-29T07:53:11.109Z,70.86
2022-07-29T07:54:11.214Z,70.32
2022-07-29T07:55:11.454Z,68.62
2022-07-29T07:56:12.751Z,69.22
2022-07-29T07:57:11.817Z,69.69
2022-07-29T07:58:12.015Z,68.28
2022-07-29T07:59:12.235Z,69.52
2022-07-29T08:00:12.428Z,70.26
2022-07-29T08:01:12.662Z,70.39
2022-07-29T08:02:12.932Z,70.83
2022-07-29T08:03:16.616Z,69.99
2022-07-29T08:04:13.420Z,69.76
2022-07-29T08:05:13.363Z,68.85
2022-07-29T08:06:13.575Z,69.49
2022-07-29T08:07:13.733Z,69.25
2022-07-29T08:08:13.929Z,69.65
2022-07-29T08:09:28.829Z,69.45
2022-07-29T08:10:14.351Z,69.05
2022-07-29T08:11:14.552Z,69.49
2022-07-29T08:12:14.709Z,69.25
2022-07-29T08:13:14.904Z,68.62
2022-07-29T08:14:15.458Z,69.02
2022-07-29T08:15:15.258Z,68.25
2022-07-29T08:16:15.535Z,67.74
2022-07-29T08:17:15.731Z,67.98
2022-07-29T08:18:15.862Z,68.68
2022-07-29T08:19:16.107Z,68.68
2022-07-29T08:20:16.281Z,68.08
2022-07-29T08:21:16.571Z,68.91
2022-07-29T08:22:16.718Z,68.08
2022-07-29T08:23:16.901Z,67.85
2022-07-29T08:24:17.088Z,67.55
2022-07-29T08:25:17.306Z,67.11
2022-07-29T08:26:17.492Z,66.64
2022-07-29T08:27:41.854Z,66.35
2022-07-29T08:28:17.873Z,65.54
2022-07-29T08:29:20.037Z,65.94
2022-07-29T08:30:18.276Z,66.14
2022-07-29T08:31:18.546Z,66.21
2022-07-29T08:32:36.887Z,64.91
2022-07-29T08:33:18.900Z,64.81
2022-07-29T08:34:19.123Z,64.31
2022-07-29T08:35:19.283Z,64.37
2022-07-29T08:36:19.478Z,63.51
2022-07-29T08:37:19.686Z,62.98
2022-07-29T08:38:19.846Z,62.44
2022-07-29T08:39:20.051Z,62.41
2022-07-29T08:40:20.310Z,62.11
2022-07-29T08:41:20.470Z,63.04
2022-07-29T08:42:20.661Z,63.14
2022-07-29T08:43:20.875Z,62.64
2022-07-29T08:44:22.396Z,62.97
2022-07-29T08:45:21.295Z,63.07
2022-07-29T08:46:21.640Z,63.10
2022-07-29T08:47:21.676Z,63.37
2022-07-29T08:48:21.882Z,63.37
2022-07-29T08:49:22.192Z,63.24
2022-07-29T08:50:22.282Z,62.74
2022-07-29T08:51:22.550Z,62.84
2022-07-29T08:52:22.708Z,63.14
2022-07-29T08:53:22.920Z,63.45
2022-07-29T08:54:23.115Z,63.31
2022-07-29T08:55:23.309Z,63.61
2022-07-29T08:56:23.528Z,64.59
2022-07-29T08:57:23.726Z,63.15
2022-07-29T08:58:24.993Z,61.48
2022-07-29T08:59:24.075Z,61.38
2022-07-29T09:00:24.264Z,60.85
2022-07-29T09:01:36.077Z,61.25
2022-07-29T09:02:24.654Z,62.22
2022-07-29T09:03:24.937Z,60.99
2022-07-29T09:04:25.040Z,61.09
2022-07-29T09:05:25.221Z,61.09
2022-07-29T09:06:25.466Z,62.19
2022-07-29T09:07:25.598Z,62.38
2022-07-29T09:08:25.816Z,63.51
2022-07-29T09:09:25.970Z,64.25
2022-07-29T09:10:26.177Z,64.15
2022-07-29T09:11:26.423Z,64.34
2022-07-29T09:12:29.314Z,63.75
2022-07-29T09:13:26.798Z,64.34
2022-07-29T09:14:26.932Z,63.75
2022-07-29T09:15:27.121Z,63.45
2022-07-29T09:16:51.884Z,63.17
2022-07-29T09:17:27.561Z,63.28
2022-07-29T09:18:30.738Z,63.17
2022-07-29T09:19:27.867Z,62.94
2022-07-29T09:20:28.066Z,62.84
2022-07-29T09:21:28.290Z,62.84
2022-07-29T09:22:28.442Z,63.04
2022-07-29T09:23:28.644Z,63.14
2022-07-29T09:24:28.850Z,63.75
2022-07-29T09:25:29.049Z,63.42
2022-07-29T09:26:29.269Z,63.51
2022-07-29T09:27:29.441Z,63.21
2022-07-29T09:28:29.602Z,64.01
2022-07-29T09:29:33.276Z,63.92
2022-07-29T09:30:31.898Z,63.92
2022-07-29T09:31:30.267Z,63.71
2022-07-29T09:32:30.395Z,62.98
2022-07-29T09:33:30.571Z,63.39
2022-07-29T09:34:30.841Z,62.28
2022-07-29T09:35:30.990Z,61.35
2022-07-29T09:36:31.198Z,61.28
2022-07-29T09:37:31.373Z,61.55
2022-07-29T09:38:31.585Z,61.28
2022-07-29T09:39:31.822Z,61.88
2022-07-29T09:40:31.997Z,61.58
2022-07-29T09:41:32.220Z,61.45
2022-07-29T09:42:32.388Z,60.85
2022-07-29T09:43:32.605Z,61.15
2022-07-29T09:44:32.817Z,61.02
2022-07-29T09:45:32.992Z,61.48
2022-07-29T09:46:33.247Z,61.85
2022-07-29T09:47:33.384Z,62.25
2022-07-29T09:48:33.564Z,62.05
2022-07-29T09:49:33.752Z,62.12
2022-07-29T09:50:33.938Z,61.85
2022-07-29T09:51:38.577Z,62.15
2022-07-29T09:52:34.320Z,62.12
2022-07-29T09:53:34.508Z,62.05
2022-07-29T09:54:34.701Z,61.92
2022-07-29T09:55:34.891Z,61.49
2022-07-29T09:56:35.091Z,60.57
2022-07-29T09:57:35.281Z,58.44
2022-07-29T09:58:35.466Z,59.74
2022-07-29T09:59:35.658Z,58.85
2022-07-29T10:00:35.882Z,56.23
2022-07-29T10:01:36.069Z,55.78
2022-07-29T10:02:36.327Z,55.71
2022-07-29T10:03:36.515Z,55.24
2022-07-29T10:04:36.659Z,56.26
2022-07-29T10:05:37.111Z,56.26
2022-07-29T10:06:37.054Z,56.26
2022-07-29T10:07:37.255Z,56.59
2022-07-29T10:08:37.449Z,57.11
2022-07-29T10:09:37.635Z,56.81
2022-07-29T10:10:37.842Z,56.81
2022-07-29T10:11:49.602Z,56.61
2022-07-29T10:12:38.274Z,57.11
2022-07-29T10:13:38.472Z,57.15
2022-07-29T10:14:38.688Z,56.53
2022-07-29T10:15:39.010Z,56.21
2022-07-29T10:16:39.134Z,55.08
2022-07-29T10:17:41.688Z,55.73
2022-07-29T10:18:39.491Z,55.06
2022-07-29T10:19:39.672Z,56.41
2022-07-29T10:20:39.880Z,55.88
2022-07-29T10:21:40.091Z,56.09
2022-07-29T10:22:55.700Z,56.59
2022-07-29T10:23:47.130Z,54.57
2022-07-29T10:24:40.788Z,56.09
2022-07-29T10:25:45.997Z,56.51
2022-07-29T10:26:41.157Z,56.79
2022-07-29T10:27:41.338Z,56.46
2022-07-29T10:28:41.596Z,55.08
2022-07-29T10:29:41.750Z,53.76
2022-07-29T10:30:41.944Z,54.74
2022-07-29T10:31:42.255Z,55.04
2022-07-29T10:32:42.354Z,55.16
2022-07-29T10:33:42.549Z,55.66
2022-07-29T10:34:42.759Z,55.63
2022-07-29T10:35:42.981Z,53.76
2022-07-29T10:36:43.307Z,52.72
2022-07-29T10:37:43.337Z,52.00
2022-07-29T10:38:45.814Z,51.50
2022-07-29T10:39:44.548Z,52.62
2022-07-29T10:40:43.921Z,52.09
2022-07-29T10:41:44.795Z,50.83
2022-07-29T10:42:44.313Z,50.60
2022-07-29T10:43:44.496Z,50.56
2022-07-29T10:44:44.684Z,50.35
2022-07-29T10:45:44.868Z,50.88
2022-07-29T10:46:45.135Z,50.88
2022-07-29T10:47:45.242Z,50.43
2022-07-29T10:48:45.484Z,50.73
2022-07-29T10:49:45.638Z,50.18
2022-07-29T10:50:45.860Z,48.45
2022-07-29T10:51:46.103Z,49.71
2022-07-29T10:52:46.243Z,48.82
2022-07-29T10:53:46.469Z,49.51
2022-07-29T10:54:46.672Z,50.08
2022-07-29T10:55:47.763Z,51.12
2022-07-29T10:56:47.070Z,51.72
2022-07-29T10:57:53.528Z,51.72
2022-07-29T10:58:52.667Z,52.22
2022-07-29T10:59:47.724Z,51.72
2022-07-29T11:00:47.937Z,51.79
2022-07-29T11:01:50.312Z,50.48
2022-07-29T11:02:50.033Z,49.63
2022-07-29T11:03:49.178Z,50.75
2022-07-29T11:04:48.736Z,51.67
2022-07-29T11:05:48.940Z,52.17
2022-07-29T11:06:49.164Z,52.92
2022-07-29T11:07:49.375Z,52.49
2022-07-29T11:08:49.586Z,52.67
2022-07-29T11:09:49.784Z,52.34
2022-07-29T11:10:49.996Z,51.50
2022-07-29T12:07:11.061Z,50.20
2022-07-29T12:07:20.382Z,44.53
2022-07-29T12:08:19.958Z,45.82
2022-07-29T12:09:20.166Z,43.99
2022-07-29T12:10:30.503Z,44.17
2022-07-29T12:11:21.828Z,44.23
2022-07-29T12:12:20.755Z,44.86
2022-07-29T12:13:20.982Z,44.07
2022-07-29T12:14:21.152Z,44.81
2022-07-29T12:15:21.364Z,44.46
2022-07-29T12:16:25.437Z,44.17
2022-07-29T12:17:21.771Z,45.48
2022-07-29T12:18:24.159Z,45.62
2022-07-29T12:19:22.153Z,45.18
2022-07-29T12:20:22.371Z,44.05
2022-07-29T12:21:25.740Z,43.26
2022-07-29T12:22:22.769Z,43.53
2022-07-29T12:23:23.019Z,44.46
2022-07-29T12:24:23.196Z,45.20
2022-07-29T12:25:38.781Z,45.82
2022-07-29T12:26:25.786Z,45.60
2022-07-29T12:27:29.424Z,45.16
2022-07-29T12:28:27.566Z,44.23
2022-07-29T12:29:33.956Z,44.45
2022-07-29T12:30:24.404Z,44.98
2022-07-29T12:31:42.975Z,44.78
2022-07-29T12:32:24.847Z,44.15
2022-07-29T12:33:24.994Z,44.42
2022-07-29T12:34:25.185Z,43.21
2022-07-29T12:35:25.391Z,43.12
2022-07-29T12:36:25.607Z,42.94
2022-07-29T12:37:41.407Z,43.67
2022-07-29T12:38:26.091Z,43.77
2022-07-29T12:39:26.242Z,43.46
2022-07-29T12:40:26.432Z,43.43
2022-07-29T12:41:26.743Z,43.46
2022-07-29T12:42:26.860Z,43.89
2022-07-29T12:43:27.054Z,44.85
2022-07-29T12:44:27.241Z,44.21
2022-07-29T12:45:27.449Z,43.16
2022-07-29T12:46:27.706Z,43.38
2022-07-29T12:47:27.856Z,43.04
2022-07-29T12:48:28.066Z,43.41
2022-07-29T12:49:28.282Z,42.60
2022-07-29T12:50:28.473Z,41.63
2022-07-29T12:51:28.707Z,41.10
2022-07-29T12:52:28.863Z,41.31
2022-07-29T12:53:29.074Z,41.61
2022-07-29T12:54:29.298Z,41.55
2022-07-29T12:55:29.484Z,43.06
2022-07-29T12:56:42.355Z,42.58
2022-07-29T12:57:29.921Z,42.05
2022-07-29T12:58:30.105Z,42.05
2022-07-29T12:59:30.298Z,42.17
2022-07-29T13:00:30.547Z,42.64
2022-07-29T13:01:30.731Z,42.21
2022-07-29T13:02:31.019Z,40.69
2022-07-29T13:03:35.707Z,40.53
2022-07-29T13:04:31.335Z,41.95
2022-07-29T13:05:31.533Z,42.13
2022-07-29T13:06:31.749Z,41.47
2022-07-29T13:07:54.121Z,42.98
2022-07-29T13:08:32.173Z,43.82
2022-07-29T13:09:32.360Z,44.41
2022-07-29T13:10:32.559Z,44.19
2022-07-29T13:11:34.100Z,44.41
2022-07-29T13:12:33.047Z,43.48
2022-07-29T13:13:33.175Z,43.38
2022-07-29T13:14:33.369Z,44.33
2022-07-29T13:15:33.559Z,45.03
2022-07-29T13:16:33.911Z,44.04
2022-07-29T13:17:33.964Z,44.35
2022-07-29T13:18:34.173Z,45.07
2022-07-29T13:19:34.365Z,44.65
2022-07-29T13:20:34.580Z,44.51
2022-07-29T13:21:34.799Z,43.99
2022-07-29T13:22:34.976Z,43.71
2022-07-29T13:23:38.379Z,45.03
2022-07-29T13:24:35.369Z,44.55
2022-07-29T13:25:35.571Z,45.15
2022-07-29T13:26:35.806Z,44.75
2022-07-29T13:27:35.976Z,44.85
2022-07-29T13:28:36.197Z,44.95
2022-07-29T13:29:36.409Z,45.64
2022-07-29T13:30:36.640Z,45.45
2022-07-29T13:31:36.834Z,44.95
2022-07-29T13:32:37.048Z,45.25
2022-07-29T13:33:37.204Z,45.64
2022-07-29T13:34:37.423Z,45.74
2022-07-29T13:35:40.130Z,45.74
2022-07-29T13:36:41.576Z,45.82
2022-07-29T13:37:38.048Z,45.10
2022-07-29T13:38:38.213Z,45.30
2022-07-29T13:39:44.499Z,45.40
2022-07-29T13:40:38.614Z,45.40
2022-07-29T13:41:38.826Z,45.08
2022-07-29T13:42:38.987Z,45.18
2022-07-29T13:43:39.179Z,44.51
2022-07-29T13:44:39.393Z,45.94
2022-07-29T13:45:39.632Z,45.94
2022-07-29T13:46:40.071Z,45.23
2022-07-29T13:47:42.500Z,44.09
2022-07-29T13:48:40.189Z,43.18
2022-07-29T13:49:40.417Z,43.26
2022-07-29T13:50:40.605Z,42.50
2022-07-29T13:51:40.818Z,41.36
2022-07-29T13:52:41.013Z,40.31